Bookmark and Share
Track history (hours):
 

Oceanis

Last reported at 2014-Mar-18 14:32 UTC. Time now 2014-Apr-21 04:47 UTC.
Position N 31°34' W 117°46'.
Warning: this ship's position is 33 days out of date.

Length 330 m; draft 11.3 m.

Type: Tanker. MMSI: 241089000.

NotesDate/timePositionNaut miles runAvg speedWind from/ knotsBaromVisibWave heightAir tempDewpointWater temp
2014-Mar-18 14:32N 31°34' W 117°46'1111.4
2014-Mar-18 13:32N 31°46' W 117°46'1211.2
2014-Mar-18 12:29N 31°57' W 117°46'1111.5
2014-Mar-18 11:33N 32°08' W 117°47'1211.6
2014-Mar-18 10:33N 32°20' W 117°47'1111.3
2014-Mar-18 09:33N 32°31' W 117°47'1211.8
2014-Mar-18 08:33N 32°43' W 117°49'1212.1
2014-Mar-18 07:33N 32°54' W 117°52'1111.2
2014-Mar-18 06:33N 33°05' W 117°55'1111.4
2014-Mar-18 05:33N 33°15' W 118°03'1211.7
2014-Mar-18 04:33N 33°25' W 118°09'18 8.7
2014-Mar-18 02:26N 33°44' W 118°11'1 0.6
2014-Mar-18 00:21N 33°44' W 118°13'0 0.0
2014-Mar-17 23:33N 33°44' W 118°13'0 0.1
2014-Mar-17 22:33N 33°44' W 118°13'0 0.0
2014-Mar-17 21:33N 33°44' W 118°13'0 0.2
2014-Mar-17 20:33N 33°44' W 118°13'0 0.0
2014-Mar-17 19:27N 33°44' W 118°13'0 0.1
2014-Mar-17 18:33N 33°44' W 118°13'0 0.1
2014-Mar-17 17:33N 33°44' W 118°13'0 0.1
2014-Mar-17 16:33N 33°44' W 118°13'0 0.1
2014-Mar-17 15:33N 33°44' W 118°13'0 0.1
2014-Mar-17 14:33N 33°44' W 118°13'0 0.1
2014-Mar-17 13:33N 33°44' W 118°13'0 0.1
2014-Mar-17 12:33N 33°44' W 118°13'0 0.0
2014-Mar-17 11:33N 33°44' W 118°13'0 0.1
2014-Mar-17 10:33N 33°44' W 118°13'1 1.0
2014-Mar-17 09:33N 33°44' W 118°11'8 7.7
2014-Mar-17 08:33N 33°36' W 118°10'1010.1
2014-Mar-17 07:34N 33°27' W 118°06'1111.3
2014-Mar-17 06:33N 33°16' W 118°01'1111.4
2014-Mar-17 05:34N 33°06' W 117°55'1111.0
2014-Mar-17 04:33N 32°55' W 117°51'1211.8
2014-Mar-17 03:33N 32°43' W 117°50'1313.0
2014-Mar-17 02:34N 32°30' W 117°51'1414.0
2014-Mar-17 01:34N 32°18' W 117°59'1414.0
2014-Mar-17 00:33N 32°06' W 118°06'1413.9
2014-Mar-16 23:33N 31°53' W 118°14'4110.2
2014-Mar-16 19:33N 31°14' W 118°27'3 2.9
2014-Mar-16 18:33N 31°15' W 118°30'2 2.0
2014-Mar-16 17:33N 31°14' W 118°33'3 2.6
2014-Mar-16 16:33N 31°15' W 118°36'2 2.3
2014-Mar-16 15:33N 31°17' W 118°38'4 1.9
2014-Mar-16 13:33N 31°19' W 118°41'2 1.9
2014-Mar-16 12:33N 31°20' W 118°43'2 1.8
2014-Mar-16 11:33N 31°22' W 118°44'2 2.1
2014-Mar-16 10:33N 31°23' W 118°46'2 2.1
2014-Mar-16 09:33N 31°25' W 118°48'2 1.9
2014-Mar-16 08:33N 31°26' W 118°49'2 1.9
2014-Mar-16 07:33N 31°28' W 118°50'2 2.1
2014-Mar-16 06:33N 31°30' W 118°51'2 1.9
2014-Mar-16 05:33N 31°31' W 118°52'2 2.2
2014-Mar-16 04:33N 31°33' W 118°54'2 2.0
2014-Mar-16 03:33N 31°35' W 118°55'2 2.2
2014-Mar-16 02:33N 31°36' W 118°57'2 2.4
2014-Mar-16 01:33N 31°38' W 118°59'2 2.3
2014-Mar-16 00:33N 31°40' W 119°01'2 2.2
2014-Mar-15 23:33N 31°41' W 119°03'2 2.1
2014-Mar-15 22:33N 31°42' W 119°05'2 2.1
2014-Mar-15 21:33N 31°44' W 119°07'1 1.8
2014-Mar-15 21:02N 31°44' W 119°08'21 2.8
2014-Mar-15 13:33N 31°56' W 119°28'2 1.9
2014-Mar-15 12:33N 31°56' W 119°30'2 1.6
2014-Mar-15 11:33N 31°57' W 119°32'9 9.0
2014-Mar-15 10:33N 31°48' W 119°29'1 1.4
2014-Mar-15 09:33N 31°50' W 119°28'1 1.4
2014-Mar-15 08:33N 31°51' W 119°28'1 1.5
2014-Mar-15 07:33N 31°53' W 119°28'1 1.5
2014-Mar-15 06:33N 31°54' W 119°29'2 1.7
2014-Mar-15 05:33N 31°56' W 119°29'2 1.8
2014-Mar-15 04:33N 31°57' W 119°29'2 1.8
2014-Mar-15 03:33N 31°59' W 119°29'3 2.7
2014-Mar-15 02:33N 31°59' W 119°26'9 8.9
2014-Mar-15 01:33N 31°57' W 119°15'1110.8
2014-Mar-15 00:33N 31°55' W 119°03'1211.6
2014-Mar-14 23:33N 31°52' W 118°50'1211.6
2014-Mar-14 22:33N 31°49' W 118°36'1212.0
2014-Mar-14 21:33N 31°46' W 118°23'1212.5
2014-Mar-14 20:33N 31°43' W 118°09'1312.6
2014-Mar-14 19:33N 31°40' W 117°54'13 0.4
2014-Mar-13 08:14N 31°44' W 117°40'1 0.5
2014-Mar-13 06:25N 31°45' W 117°40'0 0.6
2014-Mar-13 05:33N 31°46' W 117°40'1 0.5
2014-Mar-13 04:31N 31°46' W 117°41'0 0.4
2014-Mar-13 03:33N 31°46' W 117°41'0 0.5
2014-Mar-13 02:33N 31°47' W 117°42'1 0.5
2014-Mar-13 01:16N 31°47' W 117°42'0 0.5
2014-Mar-13 00:25N 31°47' W 117°42'1 0.6
2014-Mar-12 23:31N 31°48' W 117°43'1 0.6
2014-Mar-12 21:33N 31°48' W 117°44'1 0.7
2014-Mar-12 20:33N 31°48' W 117°45'1 0.6
2014-Mar-12 19:24N 31°48' W 117°46'0 0.5
2014-Mar-12 18:33N 31°48' W 117°46'1 0.5
2014-Mar-12 17:30N 31°48' W 117°47'2 0.3
2014-Mar-12 11:29N 31°49' W 117°49'0 0.3
2014-Mar-12 10:32N 31°50' W 117°49'0 0.3
2014-Mar-12 09:29N 31°50' W 117°49'0 0.3
2014-Mar-12 08:33N 31°50' W 117°50'0 0.3
2014-Mar-12 07:33N 31°50' W 117°50'1 0.6
2014-Mar-12 06:33N 31°50' W 117°51'1 0.8
2014-Mar-12 05:33N 31°50' W 117°52'1 0.8
2014-Mar-12 04:33N 31°50' W 117°52'1 1.0
2014-Mar-12 03:33N 31°50' W 117°54'1 1.0
2014-Mar-12 02:33N 31°50' W 117°55'1 1.0
2014-Mar-12 01:33N 31°50' W 117°56'1 1.1
2014-Mar-12 00:33N 31°50' W 117°57'1 1.3
2014-Mar-11 23:33N 31°50' W 117°59'1 1.4
2014-Mar-11 22:33N 31°50' W 118°00'1 1.4
2014-Mar-11 21:33N 31°50' W 118°02'2 1.6
2014-Mar-11 20:33N 31°49' W 118°03'8 7.9
2014-Mar-11 19:33N 31°41' W 118°02'1010.3
2014-Mar-11 18:33N 31°32' W 117°55'1212.5
2014-Mar-11 17:33N 31°37' W 117°41'1612.4
2014-Mar-11 16:18N 31°42' W 117°24'2 2.2
2014-Mar-11 15:33N 31°42' W 117°22'1 1.1
2014-Mar-11 14:33N 31°41' W 117°23'1 0.9
2014-Mar-11 13:33N 31°40' W 117°24'1 0.9
2014-Mar-11 12:33N 31°40' W 117°24'1 0.7
2014-Mar-11 11:33N 31°39' W 117°25'1 0.6
2014-Mar-11 10:33N 31°39' W 117°26'1 0.6
2014-Mar-11 09:33N 31°38' W 117°26'1 0.5
2014-Mar-11 08:33N 31°38' W 117°27'1 0.5
2014-Mar-11 07:33N 31°38' W 117°27'0 0.5
2014-Mar-11 06:33N 31°38' W 117°28'1 0.6
2014-Mar-11 05:33N 31°38' W 117°29'1 0.6
2014-Mar-11 04:33N 31°38' W 117°29'1 0.7
2014-Mar-11 03:33N 31°38' W 117°30'1 0.6
2014-Mar-11 02:33N 31°38' W 117°31'1 0.6
2014-Mar-11 01:33N 31°38' W 117°31'1 0.7
2014-Mar-11 00:33N 31°39' W 117°32'1 0.9
2014-Mar-10 23:33N 31°39' W 117°33'1 0.9
2014-Mar-10 22:33N 31°39' W 117°34'2 0.8
2014-Mar-10 20:33N 31°39' W 117°36'1 0.7
2014-Mar-10 19:33N 31°39' W 117°37'1 0.7
2014-Mar-10 18:31N 31°39' W 117°38'1 0.7
2014-Mar-10 17:33N 31°39' W 117°39'1 0.7
2014-Mar-10 16:33N 31°38' W 117°40'1 0.8
2014-Mar-10 15:33N 31°38' W 117°40'1 0.6
2014-Mar-10 13:30N 31°38' W 117°42'1 0.5
2014-Mar-10 12:20N 31°38' W 117°43'0 0.5
2014-Mar-10 11:33N 31°37' W 117°43'0 0.4
2014-Mar-10 10:33N 31°37' W 117°44'0 0.4
2014-Mar-10 09:33N 31°37' W 117°44'0 0.5
2014-Mar-10 08:33N 31°37' W 117°45'0 0.5
2014-Mar-10 07:33N 31°37' W 117°45'0 0.4
2014-Mar-10 06:33N 31°37' W 117°46'0 0.5
2014-Mar-10 05:33N 31°37' W 117°46'0 0.5
2014-Mar-10 04:33N 31°38' W 117°46'1 0.6
2014-Mar-10 03:33N 31°38' W 117°47'7 0.6
2014-Mar-09 14:08N 31°45' W 117°51'0 0.7
2014-Mar-09 13:33N 31°45' W 117°51'1 0.6
2014-Mar-09 12:33N 31°45' W 117°52'1 0.6
2014-Mar-09 11:33N 31°45' W 117°53'1 0.5
2014-Mar-09 10:33N 31°45' W 117°53'1 0.7
2014-Mar-09 09:33N 31°45' W 117°54'1 0.6
2014-Mar-09 08:33N 31°44' W 117°55'1 0.7
2014-Mar-09 07:33N 31°44' W 117°56'1 0.7
2014-Mar-09 06:26N 31°44' W 117°57'1 0.8
2014-Mar-09 05:33N 31°44' W 117°57'1 0.8
2014-Mar-09 04:33N 31°44' W 117°58'1 0.9
2014-Mar-09 03:33N 31°44' W 117°59'1 0.9
2014-Mar-09 02:33N 31°45' W 118°00'1 1.1
2014-Mar-09 01:33N 31°45' W 118°02'2 1.5
2014-Mar-09 00:33N 31°45' W 118°03'8 7.7
2014-Mar-08 23:33N 31°37' W 118°05'2512.6
2014-Mar-08 21:33N 31°12' W 118°06'  

Dump ship's entire track history

sailing weather and tide predictions

Oceanis — SVBC9 — position and weather